createdAt,value
2023-11-15T00:01:24.379Z,0.80
2023-11-15T00:03:58.811Z,0.50
2023-11-15T00:06:32.420Z,0.70
2023-11-15T00:09:04.113Z,0.50
2023-11-15T00:11:35.522Z,0.52
2023-11-15T00:14:06.578Z,0.70
2023-11-15T00:16:36.975Z,0.80
2023-11-15T00:19:13.586Z,0.63
2023-11-15T00:21:44.578Z,0.50
2023-11-15T00:24:14.212Z,0.60
2023-11-15T00:26:47.307Z,0.70
2023-11-15T00:29:16.575Z,0.70
2023-11-15T00:31:47.532Z,0.50
2023-11-15T00:34:18.676Z,0.50
2023-11-15T00:36:48.301Z,0.50
2023-11-15T00:39:23.529Z,0.40
2023-11-15T00:41:54.440Z,0.50
2023-11-15T00:44:25.379Z,0.60
2023-11-15T00:47:01.608Z,0.60
2023-11-15T00:49:29.069Z,0.50
2023-11-15T00:51:59.386Z,0.70
2023-11-15T00:54:29.900Z,0.47
2023-11-15T00:57:06.029Z,0.50
2023-11-15T00:59:47.872Z,0.40
2023-11-15T01:02:21.697Z,0.40
2023-11-15T01:04:52.302Z,0.60
2023-11-15T01:07:23.464Z,0.50
2023-11-15T01:09:53.747Z,0.50
2023-11-15T01:12:24.915Z,0.65
2023-11-15T01:14:58.288Z,0.60
2023-11-15T01:17:27.033Z,0.52
2023-11-15T01:19:58.055Z,0.63
2023-11-15T01:22:28.455Z,0.50
2023-11-15T01:24:55.938Z,0.60
2023-11-15T01:27:26.619Z,0.70
2023-11-15T01:29:55.507Z,0.63
2023-11-15T01:32:26.424Z,0.50
2023-11-15T01:35:00.332Z,0.63
2023-11-15T01:37:27.545Z,0.70
2023-11-15T01:39:54.906Z,0.40
2023-11-15T01:42:25.446Z,0.40
2023-11-15T01:44:55.452Z,0.40
2023-11-15T01:47:33.215Z,0.45
2023-11-15T01:50:15.866Z,0.47
2023-11-15T01:52:54.176Z,0.40
2023-11-15T01:55:25.359Z,0.40
2023-11-15T01:57:56.273Z,0.40
2023-11-15T02:00:24.490Z,0.55
2023-11-15T02:02:56.836Z,0.50
2023-11-15T02:05:33.018Z,0.50
2023-11-15T02:08:00.334Z,0.50
2023-11-15T02:10:34.050Z,0.50
2023-11-15T02:13:07.346Z,0.50
2023-11-15T02:15:41.165Z,0.60
2023-11-15T02:18:15.361Z,0.40
2023-11-15T02:20:49.290Z,0.40
2023-11-15T02:23:21.971Z,0.40
2023-11-15T02:26:01.186Z,0.40
2023-11-15T02:28:31.591Z,0.50
2023-11-15T02:31:02.296Z,0.60
2023-11-15T02:33:35.845Z,0.40
2023-11-15T02:36:07.969Z,0.50
2023-11-15T02:38:41.710Z,0.40
2023-11-15T02:41:12.807Z,0.40
2023-11-15T02:43:43.237Z,0.40
2023-11-15T02:46:17.230Z,0.50
2023-11-15T02:48:47.607Z,0.40
2023-11-15T02:51:17.899Z,0.40
2023-11-15T02:53:51.801Z,0.60
2023-11-15T02:56:23.115Z,0.40
2023-11-15T02:58:54.120Z,0.40
2023-11-15T03:01:27.333Z,0.47
2023-11-15T03:04:02.315Z,0.57
2023-11-15T03:06:32.911Z,0.50
2023-11-15T03:09:04.458Z,0.50
2023-11-15T03:11:31.712Z,0.50
2023-11-15T03:14:07.775Z,0.43
2023-11-15T03:16:38.484Z,0.50
2023-11-15T03:19:09.036Z,0.40
2023-11-15T03:21:36.614Z,0.40
2023-11-15T03:24:07.121Z,0.40
2023-11-15T03:26:37.034Z,0.50
2023-11-15T03:29:07.743Z,0.50
2023-11-15T03:31:38.028Z,0.50
2023-11-15T03:34:10.295Z,0.50
2023-11-15T03:36:42.134Z,0.50
2023-11-15T03:39:19.385Z,0.60
2023-11-15T03:41:53.169Z,0.50
2023-11-15T03:44:26.624Z,0.60
2023-11-15T03:46:57.082Z,0.40
2023-11-15T03:49:27.417Z,0.50
2023-11-15T03:52:00.783Z,0.50
2023-11-15T03:54:34.114Z,0.50
2023-11-15T03:57:04.919Z,0.50
2023-11-15T03:59:41.423Z,0.60
2023-11-15T04:02:09.212Z,0.52
2023-11-15T04:04:42.976Z,0.80
2023-11-15T04:07:13.413Z,0.70
2023-11-15T04:09:45.569Z,0.50
2023-11-15T04:12:16.457Z,0.70
2023-11-15T04:14:53.152Z,0.60
2023-11-15T04:17:26.709Z,0.45
2023-11-15T04:19:57.485Z,0.70
2023-11-15T04:22:31.213Z,0.95
2023-11-15T04:25:01.741Z,0.60
2023-11-15T04:27:33.302Z,0.82
2023-11-15T04:30:06.785Z,0.80
2023-11-15T04:32:43.074Z,0.80
2023-11-15T04:35:19.613Z,0.60
2023-11-15T04:37:50.879Z,0.88
2023-11-15T04:40:22.617Z,0.60
2023-11-15T04:42:56.396Z,0.82
2023-11-15T04:45:28.929Z,1.10
2023-11-15T04:48:01.697Z,0.95
2023-11-15T04:50:34.568Z,0.90
2023-11-15T04:53:05.063Z,0.70
2023-11-15T04:55:35.370Z,0.70
2023-11-15T04:58:11.308Z,0.88
2023-11-15T05:00:44.252Z,1.05
2023-11-15T05:03:17.151Z,0.90
2023-11-15T05:05:47.167Z,0.55
2023-11-15T05:08:15.834Z,0.90
2023-11-15T05:10:43.269Z,1.00
2023-11-15T05:13:13.451Z,0.80
2023-11-15T05:15:47.376Z,0.80
2023-11-15T05:18:21.089Z,0.90
2023-11-15T05:20:53.973Z,1.10
2023-11-15T05:23:21.579Z,0.88
2023-11-15T05:25:55.499Z,0.57
2023-11-15T05:28:26.496Z,0.82
2023-11-15T05:30:59.817Z,0.63
2023-11-15T05:33:30.821Z,1.25
2023-11-15T05:36:01.937Z,0.88
2023-11-15T05:38:35.818Z,0.80
2023-11-15T05:41:09.112Z,0.60
2023-11-15T05:43:46.183Z,0.85
2023-11-15T05:46:22.088Z,0.85
2023-11-15T05:48:51.548Z,0.82
2023-11-15T05:51:25.416Z,0.88
2023-11-15T05:53:58.129Z,0.82
2023-11-15T05:56:27.919Z,1.05
2023-11-15T05:59:01.787Z,0.80
2023-11-15T06:01:31.871Z,0.85
2023-11-15T06:04:05.602Z,0.70
2023-11-15T06:06:42.703Z,0.75
2023-11-15T06:09:15.056Z,0.85
2023-11-15T06:11:47.916Z,0.68
2023-11-15T06:14:19.585Z,0.68
2023-11-15T06:16:47.236Z,0.80
2023-11-15T06:19:20.565Z,0.98
2023-11-15T06:21:56.513Z,0.80
2023-11-15T06:24:31.177Z,0.80
2023-11-15T06:27:07.426Z,0.88
2023-11-15T06:29:42.477Z,1.20
2023-11-15T06:32:15.528Z,0.90
2023-11-15T06:34:55.129Z,0.70
2023-11-15T06:37:25.980Z,0.77
2023-11-15T06:39:59.496Z,0.80
2023-11-15T06:42:37.824Z,0.80
2023-11-15T06:45:08.671Z,0.80
2023-11-15T06:47:45.168Z,1.00
2023-11-15T06:50:17.196Z,0.90
2023-11-15T06:52:50.577Z,0.75
2023-11-15T06:55:27.028Z,1.00
2023-11-15T06:58:00.252Z,0.73
2023-11-15T07:00:39.563Z,1.00
2023-11-15T07:03:10.295Z,0.90
2023-11-15T07:05:46.298Z,0.60
2023-11-15T07:08:23.617Z,0.60
2023-11-15T07:11:02.140Z,1.55
2023-11-15T07:13:33.051Z,1.17
2023-11-15T07:16:06.255Z,0.90
2023-11-15T07:18:42.003Z,1.00
2023-11-15T07:21:16.404Z,0.70
2023-11-15T07:23:55.088Z,0.70
2023-11-15T07:26:31.780Z,0.80
2023-11-15T07:29:11.487Z,1.05
2023-11-15T07:31:46.419Z,0.90
2023-11-15T07:34:17.210Z,0.82
2023-11-15T07:36:53.907Z,0.60
2023-11-15T07:39:22.337Z,0.90
2023-11-15T07:41:55.266Z,1.10
2023-11-15T07:44:28.230Z,1.10
2023-11-15T07:47:04.663Z,0.70
2023-11-15T07:49:41.214Z,0.90
2023-11-15T07:52:15.307Z,0.80
2023-11-15T07:54:48.492Z,0.50
2023-11-15T07:57:23.227Z,0.90
2023-11-15T07:59:50.527Z,0.73
2023-11-15T08:02:20.841Z,0.65
2023-11-15T08:04:49.271Z,0.80
2023-11-15T08:07:20.006Z,0.95
2023-11-15T08:09:53.365Z,0.70
2023-11-15T08:12:26.649Z,0.88
2023-11-15T08:14:59.216Z,0.85
2023-11-15T08:17:32.072Z,0.90
2023-11-15T08:20:03.650Z,0.90
2023-11-15T08:22:33.813Z,0.65
2023-11-15T08:25:11.239Z,0.90
2023-11-15T08:27:42.068Z,1.00
2023-11-15T08:30:19.379Z,1.25
2023-11-15T08:32:54.017Z,1.40
2023-11-15T08:35:22.496Z,1.00
2023-11-15T08:37:54.713Z,0.82
2023-11-15T08:40:35.519Z,0.80
2023-11-15T08:43:10.616Z,0.80
2023-11-15T08:45:46.465Z,0.70
2023-11-15T08:48:19.589Z,1.00
2023-11-15T08:50:50.400Z,0.80
2023-11-15T08:53:27.029Z,1.08
2023-11-15T08:55:57.486Z,1.17
2023-11-15T08:58:30.629Z,0.80
2023-11-15T09:01:03.263Z,0.90
2023-11-15T09:03:34.225Z,0.95
2023-11-15T09:06:02.136Z,1.33
2023-11-15T09:08:33.367Z,0.93
2023-11-15T09:11:04.390Z,1.00
2023-11-15T09:13:34.959Z,1.00
2023-11-15T09:16:03.759Z,0.70
2023-11-15T09:18:35.602Z,1.02
2023-11-15T09:21:05.053Z,1.10
2023-11-15T09:23:38.146Z,1.42
2023-11-15T09:26:12.176Z,0.90
2023-11-15T09:28:42.891Z,1.13
2023-11-15T09:31:16.301Z,1.13
2023-11-15T09:33:46.318Z,0.82
2023-11-15T09:36:19.935Z,1.00
2023-11-15T09:38:55.219Z,1.00
2023-11-15T09:41:27.023Z,1.10
2023-11-15T09:44:02.855Z,1.13
2023-11-15T09:46:36.822Z,1.00
2023-11-15T09:49:12.442Z,0.95
2023-11-15T09:51:46.749Z,0.80
2023-11-15T09:54:23.338Z,1.08
2023-11-15T09:56:54.963Z,1.13
2023-11-15T09:59:22.795Z,1.63
2023-11-15T10:01:56.391Z,0.93
2023-11-15T10:04:36.670Z,1.25
2023-11-15T10:07:06.860Z,0.70
2023-11-15T10:09:38.263Z,1.13
2023-11-15T10:12:10.924Z,1.25
2023-11-15T10:15:01.340Z,0.90
2023-11-15T10:17:50.748Z,1.00
2023-11-15T10:20:20.346Z,0.60
2023-11-15T10:22:48.583Z,0.98
2023-11-15T10:25:21.701Z,1.50
2023-11-15T10:30:45.809Z,0.98
2023-11-15T10:33:20.157Z,1.13
2023-11-15T10:35:53.625Z,1.25
2023-11-15T10:38:29.069Z,1.23
2023-11-15T10:41:08.383Z,1.25
2023-11-15T10:43:39.553Z,1.27
2023-11-15T10:46:07.606Z,0.77
2023-11-15T10:48:36.015Z,1.25
2023-11-15T10:51:16.633Z,0.70
2023-11-15T10:53:49.533Z,1.67
2023-11-15T10:56:22.589Z,0.80
2023-11-15T10:58:55.265Z,0.82
2023-11-15T11:01:33.097Z,1.00
2023-11-15T11:04:07.370Z,1.13
2023-11-15T11:07:04.516Z,1.00
2023-11-15T11:09:36.196Z,1.10
2023-11-15T11:12:13.066Z,0.98
2023-11-15T11:14:44.578Z,1.27
2023-11-15T11:17:42.425Z,0.88
2023-11-15T11:20:26.069Z,0.90
2023-11-15T11:23:12.994Z,0.95
2023-11-15T11:25:48.466Z,1.00
2023-11-15T11:28:19.144Z,1.42
2023-11-15T11:31:06.756Z,0.90
2023-11-15T11:33:38.185Z,1.02
2023-11-15T11:36:35.973Z,1.20
2023-11-15T11:39:07.188Z,0.50
2023-11-15T11:41:39.452Z,1.33
2023-11-15T11:44:13.111Z,1.20
2023-11-15T11:46:46.679Z,1.10
2023-11-15T11:49:21.112Z,1.00
2023-11-15T11:51:53.356Z,1.00
2023-11-15T11:54:26.308Z,0.90
2023-11-15T11:57:00.452Z,1.05
2023-11-15T11:59:32.910Z,1.00
2023-11-15T12:02:09.040Z,1.00
2023-11-15T12:04:51.481Z,0.80
2023-11-15T12:07:25.838Z,0.98
2023-11-15T12:10:02.416Z,1.20
2023-11-15T12:12:30.162Z,1.02
2023-11-15T12:15:03.333Z,0.88
2023-11-15T12:17:41.680Z,1.40
2023-11-15T12:20:15.407Z,1.00
2023-11-15T12:22:47.299Z,1.10
2023-11-15T12:25:19.813Z,1.35
2023-11-15T12:27:50.591Z,1.10
2023-11-15T12:30:23.832Z,1.02
2023-11-15T12:32:59.441Z,1.02
2023-11-15T12:35:36.470Z,0.88
2023-11-15T12:38:15.987Z,0.98
2023-11-15T12:40:49.912Z,1.02
2023-11-15T12:43:31.749Z,1.30
2023-11-15T12:46:21.520Z,1.13
2023-11-15T12:48:50.486Z,1.10
2023-11-15T12:51:27.104Z,0.95
2023-11-15T12:54:01.092Z,1.20
2023-11-15T12:56:34.340Z,0.68
2023-11-15T12:59:07.673Z,0.98
2023-11-15T13:01:41.013Z,0.85
2023-11-15T13:04:11.583Z,1.00
2023-11-15T13:06:42.771Z,0.70
2023-11-15T13:09:18.312Z,0.88
2023-11-15T13:11:49.199Z,1.17
2023-11-15T13:14:24.020Z,1.10
2023-11-15T13:17:00.264Z,0.80
2023-11-15T13:19:37.411Z,0.95
2023-11-15T13:22:10.990Z,1.00
2023-11-15T13:24:53.297Z,1.00
2023-11-15T13:27:22.418Z,0.93
2023-11-15T13:29:56.286Z,1.20
2023-11-15T13:32:31.874Z,0.95
2023-11-15T13:35:11.575Z,0.88
2023-11-15T13:37:51.038Z,1.00
2023-11-15T13:40:22.073Z,1.10
2023-11-15T13:42:57.924Z,0.88
2023-11-15T13:45:32.047Z,1.10
2023-11-15T13:48:05.906Z,1.05
2023-11-15T13:50:35.794Z,1.05
2023-11-15T13:53:06.270Z,1.00
2023-11-15T13:55:39.878Z,0.95
2023-11-15T13:58:10.913Z,0.98
2023-11-15T14:00:43.078Z,1.15
2023-11-15T14:03:15.840Z,0.90
2023-11-15T14:05:52.720Z,0.90
2023-11-15T14:08:26.853Z,0.90
2023-11-15T14:10:59.520Z,0.77
2023-11-15T14:13:36.291Z,0.70
2023-11-15T14:16:10.293Z,0.85
2023-11-15T14:18:42.255Z,0.73
2023-11-15T14:21:13.678Z,0.80
2023-11-15T14:23:46.622Z,1.00
2023-11-15T14:26:17.701Z,0.82
2023-11-15T14:28:50.429Z,0.98
2023-11-15T14:31:19.792Z,0.80
2023-11-15T14:33:53.464Z,0.90
2023-11-15T14:36:29.239Z,0.80
2023-11-15T14:39:00.559Z,0.70
2023-11-15T14:41:36.314Z,0.70
2023-11-15T14:44:09.164Z,0.90
2023-11-15T14:46:40.670Z,0.93
2023-11-15T14:49:16.929Z,1.00
2023-11-15T14:51:50.508Z,0.90
2023-11-15T14:54:25.605Z,0.90
2023-11-15T14:56:59.027Z,1.00
2023-11-15T14:59:32.876Z,0.90
2023-11-15T15:02:08.635Z,1.13
2023-11-15T15:04:45.741Z,1.00
2023-11-15T15:07:20.637Z,1.00
2023-11-15T15:09:50.995Z,1.23
2023-11-15T15:12:25.243Z,1.02
2023-11-15T15:14:59.241Z,0.98
2023-11-15T15:17:32.988Z,1.00
2023-11-15T15:20:04.716Z,1.02
2023-11-15T15:22:36.199Z,0.85
2023-11-15T15:25:05.161Z,0.70
2023-11-15T15:27:40.513Z,0.50
2023-11-15T15:30:19.278Z,0.55
2023-11-15T15:32:50.103Z,0.77
2023-11-15T15:35:18.069Z,0.70
2023-11-15T15:37:51.909Z,0.90
2023-11-15T15:40:29.997Z,0.93
2023-11-15T15:43:03.570Z,0.80
2023-11-15T15:45:40.521Z,0.60
2023-11-15T15:48:12.994Z,0.80
2023-11-15T15:50:44.063Z,0.77
2023-11-15T15:53:19.523Z,0.82
2023-11-15T15:55:46.992Z,0.70
2023-11-15T15:58:20.769Z,0.90
2023-11-15T16:00:51.493Z,0.70
2023-11-15T16:03:24.649Z,1.20
2023-11-15T16:05:57.776Z,1.13
2023-11-15T16:08:33.518Z,0.98
2023-11-15T16:11:10.070Z,0.88
2023-11-15T16:13:43.561Z,0.70
2023-11-15T16:16:13.657Z,0.82
2023-11-15T16:18:48.077Z,0.68
2023-11-15T16:21:22.030Z,1.00
2023-11-15T16:23:58.530Z,1.15
2023-11-15T16:26:35.382Z,1.08
2023-11-15T16:29:05.997Z,0.90
2023-11-15T16:31:36.721Z,0.93
2023-11-15T16:34:17.306Z,0.93
2023-11-15T16:36:48.768Z,1.10
2023-11-15T16:39:17.249Z,0.70
2023-11-15T16:41:57.365Z,0.90
2023-11-15T16:44:33.681Z,1.00
2023-11-15T16:47:07.477Z,0.95
2023-11-15T16:49:41.391Z,0.98
2023-11-15T16:52:11.829Z,0.80
2023-11-15T16:54:42.326Z,1.10
2023-11-15T16:57:12.641Z,0.75
2023-11-15T16:59:41.262Z,0.90
2023-11-15T17:02:11.665Z,1.70
2023-11-15T17:04:42.108Z,1.00
2023-11-15T17:07:14.385Z,1.10
2023-11-15T17:09:44.833Z,1.00
2023-11-15T17:12:13.720Z,1.10
2023-11-15T17:14:44.717Z,0.80
2023-11-15T17:17:17.827Z,0.80
2023-11-15T17:19:50.580Z,1.10
2023-11-15T17:22:21.525Z,1.10
2023-11-15T17:24:54.502Z,0.90
2023-11-15T17:27:28.026Z,0.70
2023-11-15T17:30:01.280Z,0.70
2023-11-15T17:32:41.103Z,0.80
2023-11-15T17:35:14.447Z,0.63
2023-11-15T17:37:45.284Z,0.52
2023-11-15T17:40:20.074Z,0.60
2023-11-15T17:42:48.340Z,0.50
2023-11-15T17:45:20.165Z,0.50
2023-11-15T17:47:54.450Z,0.60
2023-11-15T17:50:29.384Z,0.65
2023-11-15T17:53:02.288Z,0.73
2023-11-15T17:55:35.687Z,0.60
2023-11-15T17:58:09.533Z,0.95
2023-11-15T18:00:37.303Z,0.60
2023-11-15T18:03:06.245Z,0.60
2023-11-15T18:05:36.917Z,0.55
2023-11-15T18:08:07.858Z,0.52
2023-11-15T18:10:39.540Z,0.68
2023-11-15T18:13:13.610Z,0.90
2023-11-15T18:15:46.224Z,0.65
2023-11-15T18:18:21.752Z,0.68
2023-11-15T18:20:55.727Z,0.68
2023-11-15T18:23:30.023Z,0.70
2023-11-15T18:26:04.183Z,0.70
2023-11-15T18:28:36.032Z,0.70
2023-11-15T18:31:08.054Z,0.80
2023-11-15T18:33:44.659Z,0.70
2023-11-15T18:36:18.603Z,0.80
2023-11-15T18:38:49.454Z,0.70
2023-11-15T18:41:19.003Z,0.90
2023-11-15T18:43:51.010Z,0.70
2023-11-15T18:46:19.056Z,0.60
2023-11-15T18:48:50.273Z,0.82
2023-11-15T18:51:27.880Z,1.00
2023-11-15T18:53:57.741Z,0.75
2023-11-15T18:56:29.327Z,0.80
2023-11-15T18:59:07.054Z,1.50
2023-11-15T19:01:40.299Z,1.25
2023-11-15T19:04:12.050Z,0.80
2023-11-15T19:06:43.128Z,1.00
2023-11-15T19:09:18.303Z,1.02
2023-11-15T19:11:57.633Z,1.00
2023-11-15T19:14:35.257Z,1.05
2023-11-15T19:17:03.194Z,1.17
2023-11-15T19:19:42.556Z,0.93
2023-11-15T19:22:11.133Z,0.85
2023-11-15T19:24:45.891Z,0.98
2023-11-15T19:27:14.094Z,1.30
2023-11-15T19:29:52.893Z,1.13
2023-11-15T19:32:31.112Z,1.13
2023-11-15T19:35:03.144Z,0.90
2023-11-15T19:37:39.842Z,1.20
2023-11-15T19:40:16.230Z,1.10
2023-11-15T19:42:47.879Z,1.08
2023-11-15T19:45:19.350Z,0.90
2023-11-15T19:47:53.074Z,1.33
2023-11-15T19:50:30.008Z,1.23
2023-11-15T19:53:09.403Z,1.38
2023-11-15T19:55:40.553Z,1.17
2023-11-15T19:58:15.163Z,1.23
2023-11-15T20:00:44.037Z,1.08
2023-11-15T20:03:20.102Z,1.08
2023-11-15T20:05:48.400Z,1.38
2023-11-15T20:08:22.366Z,1.30
2023-11-15T20:10:54.104Z,1.17
2023-11-15T20:13:22.561Z,1.10
2023-11-15T20:15:56.770Z,1.30
2023-11-15T20:18:31.339Z,1.17
2023-11-15T20:21:02.345Z,0.93
2023-11-15T20:23:40.014Z,1.25
2023-11-15T20:26:13.493Z,1.30
2023-11-15T20:28:46.684Z,1.45
2023-11-15T20:31:21.374Z,1.40
2023-11-15T20:33:52.704Z,1.35
2023-11-15T20:36:23.229Z,1.10
2023-11-15T20:38:56.890Z,1.75
2023-11-15T20:41:28.421Z,1.30
2023-11-15T20:44:00.229Z,1.33
2023-11-15T20:46:37.927Z,1.35
2023-11-15T20:49:09.664Z,1.63
2023-11-15T20:51:38.148Z,1.52
2023-11-15T20:54:08.915Z,1.40
2023-11-15T20:56:45.772Z,1.00
2023-11-15T20:59:17.204Z,2.30
2023-11-15T21:01:55.526Z,1.77
2023-11-15T21:04:31.836Z,1.60
2023-11-15T21:07:00.680Z,1.65
2023-11-15T21:09:37.535Z,1.48
2023-11-15T21:12:11.936Z,1.50
2023-11-15T21:14:46.182Z,1.73
2023-11-15T21:17:14.333Z,1.27
2023-11-15T21:19:45.489Z,1.77
2023-11-15T21:22:19.260Z,1.40
2023-11-15T21:24:50.690Z,1.80
2023-11-15T21:27:26.703Z,1.85
2023-11-15T21:30:00.709Z,1.52
2023-11-15T21:32:35.220Z,1.38
2023-11-15T21:35:11.409Z,1.83
2023-11-15T21:37:49.012Z,1.30
2023-11-15T21:40:21.791Z,1.30
2023-11-15T21:42:53.446Z,1.73
2023-11-15T21:45:26.953Z,1.25
2023-11-15T21:47:57.974Z,1.30
2023-11-15T21:50:31.764Z,1.52
2023-11-15T21:53:05.493Z,1.13
2023-11-15T21:55:37.129Z,1.33
2023-11-15T21:58:14.394Z,1.45
2023-11-15T22:00:47.210Z,0.95
2023-11-15T22:03:20.782Z,1.23
2023-11-15T22:05:54.529Z,1.38
2023-11-15T22:08:24.760Z,1.02
2023-11-15T22:11:02.612Z,1.10
2023-11-15T22:13:33.448Z,1.02
2023-11-15T22:16:04.159Z,1.08
2023-11-15T22:18:32.296Z,1.13
2023-11-15T22:20:59.796Z,1.00
2023-11-15T22:23:30.811Z,1.10
2023-11-15T22:26:04.161Z,1.00
2023-11-15T22:28:37.017Z,1.38
2023-11-15T22:31:07.630Z,1.10
2023-11-15T22:33:38.343Z,1.35
2023-11-15T22:36:09.462Z,1.20
2023-11-15T22:38:46.247Z,1.15
2023-11-15T22:41:20.218Z,1.70
2023-11-15T22:43:51.102Z,1.40
2023-11-15T22:46:20.829Z,1.30
2023-11-15T22:48:58.533Z,1.10
2023-11-15T22:51:34.422Z,1.20
2023-11-15T22:54:05.808Z,1.08
2023-11-15T22:56:38.707Z,1.23
2023-11-15T22:59:09.336Z,1.45
2023-11-15T23:01:45.575Z,1.20
2023-11-15T23:04:23.058Z,1.42
2023-11-15T23:06:55.870Z,1.00
2023-11-15T23:09:27.116Z,1.00
2023-11-15T23:12:03.507Z,1.10
2023-11-15T23:14:36.288Z,1.10
2023-11-15T23:17:13.199Z,1.23
2023-11-15T23:19:47.409Z,1.10
2023-11-15T23:22:17.417Z,0.90
2023-11-15T23:24:48.119Z,1.23
2023-11-15T23:27:18.551Z,0.90
2023-11-15T23:29:49.542Z,1.10
2023-11-15T23:32:23.390Z,0.90
2023-11-15T23:34:56.956Z,0.80
2023-11-15T23:37:24.893Z,0.80
2023-11-15T23:39:58.349Z,1.55
2023-11-15T23:42:26.541Z,0.80
2023-11-15T23:45:03.238Z,1.10
2023-11-15T23:47:36.288Z,0.70
2023-11-15T23:50:12.378Z,0.88
2023-11-15T23:52:45.575Z,0.77
2023-11-15T23:55:15.852Z,0.80
2023-11-15T23:57:52.389Z,0.90
